createdAt,value
2022-09-18T00:01:36.929Z,1.97
2022-09-18T00:04:08.142Z,1.80
2022-09-18T00:06:38.272Z,2.13
2022-09-18T00:09:09.055Z,1.70
2022-09-18T00:11:41.007Z,1.97
2022-09-18T00:14:11.501Z,1.80
2022-09-18T00:16:40.347Z,2.60
2022-09-18T00:19:09.069Z,2.07
2022-09-18T00:21:37.679Z,1.83
2022-09-18T00:24:06.640Z,2.13
2022-09-18T00:26:35.513Z,1.80
2022-09-18T00:29:05.193Z,2.10
2022-09-18T00:31:35.458Z,1.90
2022-09-18T00:34:05.737Z,1.63
2022-09-18T00:36:33.780Z,1.80
2022-09-18T00:39:02.658Z,1.60
2022-09-18T00:41:32.857Z,2.10
2022-09-18T00:44:45.436Z,2.07
2022-09-18T00:47:26.952Z,1.80
2022-09-18T00:50:00.673Z,1.70
2022-09-18T00:52:31.692Z,1.70
2022-09-18T00:55:03.903Z,2.00
2022-09-18T00:57:34.598Z,1.93
2022-09-18T01:00:09.721Z,1.80
2022-09-18T01:02:40.058Z,1.80
2022-09-18T01:05:09.216Z,1.73
2022-09-18T01:07:50.625Z,1.90
2022-09-18T01:10:35.097Z,1.90
2022-09-18T01:13:07.867Z,2.37
2022-09-18T01:15:42.603Z,1.53
2022-09-18T01:18:17.920Z,2.20
2022-09-18T01:21:02.312Z,1.90
2022-09-18T01:24:25.156Z,1.87
2022-09-18T01:27:01.902Z,1.70
2022-09-18T01:29:40.320Z,2.00
2022-09-18T01:32:14.146Z,1.80
2022-09-18T01:34:47.895Z,1.70
2022-09-18T01:37:21.286Z,1.90
2022-09-18T01:39:56.073Z,2.53
2022-09-18T01:42:27.396Z,2.83
2022-09-18T01:45:02.027Z,1.70
2022-09-18T01:47:38.325Z,2.63
2022-09-18T01:50:10.246Z,2.03
2022-09-18T01:52:42.287Z,2.13
2022-09-18T01:55:19.190Z,1.80
2022-09-18T01:57:53.766Z,2.00
2022-09-18T02:00:24.616Z,2.07
2022-09-18T02:02:56.231Z,1.70
2022-09-18T02:05:28.390Z,2.37
2022-09-18T02:08:04.764Z,2.17
2022-09-18T02:10:36.574Z,2.03
2022-09-18T02:13:06.808Z,1.70
2022-09-18T02:15:40.039Z,2.03
2022-09-18T02:18:13.751Z,2.77
2022-09-18T02:20:44.441Z,2.30
2022-09-18T02:23:13.274Z,2.10
2022-09-18T02:25:45.602Z,2.67
2022-09-18T02:28:19.056Z,2.17
2022-09-18T02:30:49.183Z,2.00
2022-09-18T02:33:28.991Z,2.07
2022-09-18T02:36:19.525Z,2.20
2022-09-18T02:38:54.633Z,2.03
2022-09-18T02:41:45.542Z,1.97
2022-09-18T02:44:19.754Z,2.67
2022-09-18T02:47:01.507Z,2.13
2022-09-18T02:49:38.224Z,2.37
2022-09-18T02:52:13.038Z,1.90
2022-09-18T02:54:48.359Z,1.90
2022-09-18T02:57:21.859Z,2.10
2022-09-18T02:59:54.577Z,2.27
2022-09-18T03:02:24.882Z,2.00
2022-09-18T03:04:53.542Z,2.00
2022-09-18T03:07:21.940Z,1.90
2022-09-18T03:09:50.131Z,1.90
2022-09-18T03:12:18.263Z,2.07
2022-09-18T03:14:46.308Z,2.30
2022-09-18T03:17:14.351Z,2.00
2022-09-18T03:19:44.653Z,1.70
2022-09-18T03:22:12.899Z,1.93
2022-09-18T03:24:40.980Z,2.20
2022-09-18T03:27:10.554Z,1.90
2022-09-18T03:29:38.710Z,1.80
2022-09-18T03:32:06.878Z,2.17
2022-09-18T03:34:35.169Z,2.00
2022-09-18T03:37:04.828Z,2.40
2022-09-18T03:39:32.924Z,1.93
2022-09-18T03:42:01.055Z,2.00
2022-09-18T03:44:29.438Z,2.27
2022-09-18T03:46:57.860Z,2.10
2022-09-18T03:49:26.533Z,2.07
2022-09-18T03:51:55.816Z,2.20
2022-09-18T03:54:26.238Z,1.80
2022-09-18T03:56:54.418Z,2.00
2022-09-18T03:59:22.529Z,2.13
2022-09-18T04:01:50.768Z,1.77
2022-09-18T04:04:19.233Z,2.30
2022-09-18T04:06:47.409Z,2.07
2022-09-18T04:09:16.586Z,2.10
2022-09-18T04:11:45.992Z,2.20
2022-09-18T04:14:14.363Z,1.90
2022-09-18T04:16:42.474Z,2.00
2022-09-18T04:19:10.643Z,2.10
2022-09-18T04:21:38.939Z,2.00
2022-09-18T04:24:07.353Z,2.00
2022-09-18T04:26:35.763Z,2.03
2022-09-18T04:29:05.501Z,2.20
2022-09-18T04:31:33.689Z,2.20
2022-09-18T04:34:01.998Z,2.10
2022-09-18T04:36:30.088Z,1.90
2022-09-18T04:38:58.124Z,2.27
2022-09-18T04:41:26.156Z,2.10
2022-09-18T04:43:54.284Z,2.40
2022-09-18T04:46:23.723Z,2.00
2022-09-18T04:48:52.043Z,2.30
2022-09-18T04:51:20.133Z,2.47
2022-09-18T04:53:48.336Z,2.50
2022-09-18T04:56:16.551Z,2.67
2022-09-18T04:58:44.669Z,1.87
2022-09-18T05:01:12.953Z,2.10
2022-09-18T05:03:42.453Z,1.97
2022-09-18T05:06:10.641Z,2.30
2022-09-18T05:08:38.711Z,2.50
2022-09-18T05:11:06.813Z,2.03
2022-09-18T05:13:34.907Z,1.90
2022-09-18T05:16:03.227Z,2.23
2022-09-18T05:18:31.432Z,2.33
2022-09-18T05:21:04.225Z,2.10
2022-09-18T05:23:33.322Z,1.90
2022-09-18T05:26:01.679Z,2.20
2022-09-18T05:28:29.847Z,2.03
2022-09-18T05:31:00.700Z,1.83
2022-09-18T05:33:28.853Z,2.13
2022-09-18T05:35:57.950Z,2.23
2022-09-18T05:38:28.121Z,2.03
2022-09-18T05:41:00.009Z,1.93
2022-09-18T05:43:28.212Z,2.20
2022-09-18T05:45:56.543Z,2.37
2022-09-18T05:48:24.614Z,2.17
2022-09-18T05:50:52.710Z,2.40
2022-09-18T05:53:22.429Z,2.60
2022-09-18T05:55:51.899Z,2.30
2022-09-18T05:58:20.897Z,2.17
2022-09-18T06:00:51.237Z,2.40
2022-09-18T06:03:20.018Z,2.43
2022-09-18T06:05:53.836Z,2.70
2022-09-18T06:08:22.777Z,3.07
2022-09-18T06:10:53.458Z,2.70
2022-09-18T06:13:21.606Z,2.60
2022-09-18T06:15:52.310Z,2.70
2022-09-18T06:18:20.566Z,2.83
2022-09-18T06:20:54.373Z,4.50
2022-09-18T06:23:23.781Z,3.00
2022-09-18T06:25:59.713Z,3.30
2022-09-18T06:28:28.323Z,3.70
2022-09-18T06:30:56.390Z,3.40
2022-09-18T06:33:24.537Z,2.90
2022-09-18T06:35:52.693Z,4.97
2022-09-18T06:38:20.718Z,4.50
2022-09-18T06:40:50.712Z,3.70
2022-09-18T06:43:20.561Z,3.73
2022-09-18T06:45:53.417Z,3.70
2022-09-18T06:48:21.973Z,3.60
2022-09-18T06:50:53.945Z,3.80
2022-09-18T06:53:22.676Z,3.53
2022-09-18T06:55:51.203Z,3.50
2022-09-18T06:58:21.443Z,3.30
2022-09-18T07:00:49.578Z,3.50
2022-09-18T07:03:17.837Z,3.40
2022-09-18T07:05:46.556Z,4.03
2022-09-18T07:08:15.437Z,3.33
2022-09-18T07:10:43.625Z,3.20
2022-09-18T07:13:11.672Z,3.70
2022-09-18T07:15:41.083Z,3.60
2022-09-18T07:18:09.169Z,3.20
2022-09-18T07:20:37.387Z,3.40
2022-09-18T07:23:06.038Z,3.40
2022-09-18T07:25:34.612Z,3.50
2022-09-18T07:28:07.910Z,3.60
2022-09-18T07:30:36.517Z,3.70
2022-09-18T07:33:08.211Z,3.67
2022-09-18T07:35:36.566Z,3.83
2022-09-18T07:38:07.527Z,3.47
2022-09-18T07:40:35.943Z,3.40
2022-09-18T07:43:06.298Z,3.33
2022-09-18T07:45:35.262Z,3.40
2022-09-18T07:48:06.007Z,3.60
2022-09-18T07:50:34.647Z,3.03
2022-09-18T07:53:05.314Z,3.10
2022-09-18T07:55:36.786Z,3.10
2022-09-18T07:58:07.016Z,3.47
2022-09-18T08:00:36.780Z,3.70
2022-09-18T08:03:07.856Z,3.37
2022-09-18T08:05:36.683Z,3.37
2022-09-18T08:08:05.351Z,3.70
2022-09-18T08:10:34.215Z,3.90
2022-09-18T08:13:02.726Z,4.50
2022-09-18T08:15:31.288Z,3.50
2022-09-18T08:17:59.437Z,3.90
2022-09-18T08:20:29.671Z,4.07
2022-09-18T08:22:58.571Z,4.47
2022-09-18T08:25:27.425Z,3.73
2022-09-18T08:27:55.461Z,3.93
2022-09-18T08:30:23.575Z,3.83
2022-09-18T08:32:51.787Z,3.53
2022-09-18T08:35:19.841Z,3.80
2022-09-18T08:37:50.651Z,3.57
2022-09-18T08:40:22.245Z,3.40
2022-09-18T08:43:04.532Z,3.60
2022-09-18T08:45:48.340Z,3.47
2022-09-18T08:48:21.239Z,3.47
2022-09-18T08:50:59.414Z,3.77
2022-09-18T08:53:32.841Z,3.70
2022-09-18T08:56:02.780Z,3.73
2022-09-18T08:58:34.660Z,3.90
2022-09-18T09:01:08.643Z,3.60
2022-09-18T09:03:50.906Z,4.70
2022-09-18T09:06:34.034Z,4.37
2022-09-18T09:09:21.536Z,3.60
2022-09-18T09:11:56.474Z,3.40
2022-09-18T09:14:56.085Z,3.67
2022-09-18T09:17:42.687Z,4.00
2022-09-18T09:20:22.634Z,4.00
2022-09-18T09:22:58.043Z,4.27
2022-09-18T09:25:34.703Z,3.90
2022-09-18T09:28:16.187Z,3.63
2022-09-18T09:30:47.555Z,4.57
2022-09-18T09:33:22.419Z,3.93
2022-09-18T09:35:53.415Z,3.90
2022-09-18T09:38:39.842Z,4.00
2022-09-18T09:41:23.841Z,4.57
2022-09-18T09:44:00.589Z,6.00
2022-09-18T09:46:43.680Z,5.13
2022-09-18T09:49:16.759Z,4.70
2022-09-18T09:51:52.415Z,4.60
2022-09-18T09:54:21.261Z,4.77
2022-09-18T09:56:55.871Z,4.63
2022-09-18T09:59:31.528Z,4.10
2022-09-18T10:02:08.831Z,3.67
2022-09-18T10:04:46.004Z,3.80
2022-09-18T10:07:19.892Z,4.00
2022-09-18T10:09:53.980Z,3.67
2022-09-18T10:12:33.076Z,5.03
2022-09-18T10:15:07.929Z,4.43
2022-09-18T10:17:39.986Z,3.90
2022-09-18T10:20:14.633Z,3.67
2022-09-18T10:22:43.276Z,3.40
2022-09-18T10:25:22.080Z,3.47
2022-09-18T10:27:51.540Z,3.53
2022-09-18T10:30:19.875Z,3.37
2022-09-18T10:32:47.933Z,3.10
2022-09-18T10:35:43.626Z,3.10
2022-09-18T10:38:37.704Z,2.80
2022-09-18T10:41:32.452Z,2.70
2022-09-18T10:44:07.832Z,3.10
2022-09-18T10:46:40.152Z,2.70
2022-09-18T10:49:20.485Z,2.20
2022-09-18T10:51:48.595Z,2.10
2022-09-18T10:54:19.395Z,1.80
2022-09-18T10:56:47.533Z,2.40
2022-09-18T10:59:37.995Z,2.60
2022-09-18T11:02:13.742Z,2.37
2022-09-18T11:04:42.034Z,2.10
2022-09-18T11:07:12.741Z,1.10
2022-09-18T11:09:42.557Z,1.00
2022-09-18T11:12:18.281Z,1.03
2022-09-18T11:14:52.777Z,1.00
2022-09-18T11:17:27.793Z,1.57
2022-09-18T11:19:58.313Z,1.00
2022-09-18T11:22:35.966Z,1.00
2022-09-18T11:25:20.284Z,1.10
2022-09-18T11:27:49.770Z,1.20
2022-09-18T11:30:24.358Z,0.97
2022-09-18T11:32:55.433Z,1.40
2022-09-18T11:35:24.030Z,1.00
2022-09-18T11:37:54.374Z,1.23
2022-09-18T11:40:25.575Z,1.03
2022-09-18T11:42:55.564Z,1.10
2022-09-18T11:45:51.659Z,0.87
2022-09-18T11:48:28.316Z,1.00
2022-09-18T11:50:58.060Z,0.90
2022-09-18T11:53:29.313Z,0.90
2022-09-18T11:56:05.077Z,1.00
2022-09-18T11:58:38.063Z,0.80
2022-09-18T12:01:19.178Z,0.87
2022-09-18T12:03:53.391Z,1.00
2022-09-18T12:06:29.339Z,1.30
2022-09-18T12:09:01.532Z,1.87
2022-09-18T12:11:37.268Z,1.10
2022-09-18T12:14:14.688Z,1.00
2022-09-18T12:16:50.868Z,0.93
2022-09-18T12:19:23.297Z,1.37
2022-09-18T12:21:58.904Z,1.10
2022-09-18T12:24:27.267Z,1.00
2022-09-18T12:27:10.711Z,1.17
2022-09-18T12:30:05.103Z,0.90
2022-09-18T12:32:56.738Z,1.00
2022-09-18T12:35:34.301Z,1.03
2022-09-18T12:38:14.121Z,1.07
2022-09-18T12:40:58.600Z,1.00
2022-09-18T12:43:49.813Z,0.90
2022-09-18T12:46:36.836Z,1.20
2022-09-18T12:49:18.203Z,0.70
2022-09-18T12:51:48.865Z,1.00
2022-09-18T12:54:52.754Z,0.90
2022-09-18T12:57:45.900Z,0.80
2022-09-18T13:00:16.162Z,0.80
2022-09-18T13:02:52.923Z,0.90
2022-09-18T13:05:29.396Z,1.00
2022-09-18T13:08:04.187Z,0.80
2022-09-18T13:10:37.378Z,0.90
2022-09-18T13:13:12.915Z,1.00
2022-09-18T13:15:46.011Z,0.87
2022-09-18T13:18:28.931Z,1.00
2022-09-18T13:21:01.133Z,0.80
2022-09-18T13:23:33.409Z,0.77
2022-09-18T13:26:03.198Z,0.77
2022-09-18T13:28:31.390Z,0.80
2022-09-18T13:31:24.775Z,0.90
2022-09-18T13:33:56.022Z,0.87
2022-09-18T13:36:29.403Z,0.90
2022-09-18T13:39:02.375Z,0.70
2022-09-18T13:41:41.411Z,0.90
2022-09-18T13:44:19.139Z,0.87
2022-09-18T13:46:48.115Z,0.80
2022-09-18T13:49:23.414Z,1.13
2022-09-18T13:51:53.021Z,0.90
2022-09-18T13:54:27.928Z,1.10
2022-09-18T13:57:21.991Z,0.87
2022-09-18T13:59:52.978Z,0.97
2022-09-18T14:02:36.035Z,0.90
2022-09-18T14:05:31.219Z,0.80
2022-09-18T14:08:14.436Z,0.87
2022-09-18T14:11:16.734Z,0.90
2022-09-18T14:13:54.368Z,1.20
2022-09-18T14:16:38.863Z,1.00
2022-09-18T14:19:21.330Z,0.80
2022-09-18T14:21:49.582Z,1.00
2022-09-18T14:24:39.731Z,1.00
2022-09-18T14:27:36.075Z,0.83
2022-09-18T14:30:14.563Z,1.20
2022-09-18T14:33:03.335Z,0.97
2022-09-18T14:35:39.849Z,1.27
2022-09-18T14:38:28.212Z,0.77
2022-09-18T14:41:05.914Z,0.90
2022-09-18T14:43:34.145Z,0.80
2022-09-18T14:46:02.376Z,0.90
2022-09-18T14:48:32.023Z,0.97
2022-09-18T14:51:03.333Z,1.13
2022-09-18T14:53:32.208Z,0.90
2022-09-18T14:56:05.055Z,1.00
2022-09-18T14:58:36.460Z,1.13
2022-09-18T15:01:07.141Z,1.00
2022-09-18T15:03:39.362Z,0.90
2022-09-18T15:06:10.918Z,1.00
2022-09-18T15:08:39.507Z,0.97
2022-09-18T15:11:09.202Z,1.17
2022-09-18T15:13:38.938Z,1.00
2022-09-18T15:16:07.840Z,1.03
2022-09-18T15:18:42.835Z,1.20
2022-09-18T15:21:23.729Z,1.00
2022-09-18T15:23:52.019Z,0.90
2022-09-18T15:26:24.907Z,0.93
2022-09-18T15:28:54.672Z,1.00
2022-09-18T15:31:24.669Z,1.30
2022-09-18T15:33:57.446Z,1.07
2022-09-18T15:36:28.109Z,1.60
2022-09-18T15:38:58.065Z,1.10
2022-09-18T15:41:41.397Z,1.00
2022-09-18T15:44:52.906Z,1.00
2022-09-18T15:47:34.844Z,0.97
2022-09-18T15:50:22.297Z,1.00
2022-09-18T15:53:03.115Z,1.00
2022-09-18T15:55:33.213Z,0.97
2022-09-18T15:58:04.314Z,0.90
2022-09-18T16:00:34.868Z,1.10
2022-09-18T16:03:06.879Z,1.00
2022-09-18T16:05:38.013Z,1.20
2022-09-18T16:08:16.967Z,1.10
2022-09-18T16:10:48.856Z,1.00
2022-09-18T16:13:33.457Z,1.47
2022-09-18T16:16:24.835Z,0.80
2022-09-18T16:18:56.264Z,1.03
2022-09-18T16:21:28.162Z,1.33
2022-09-18T16:23:59.128Z,1.27
2022-09-18T16:26:31.164Z,1.00
2022-09-18T16:29:02.301Z,1.00
2022-09-18T16:31:32.357Z,1.00
2022-09-18T16:34:02.615Z,1.00
2022-09-18T16:36:34.186Z,1.10
2022-09-18T16:39:05.188Z,1.00
2022-09-18T16:41:33.665Z,1.30
2022-09-18T16:44:04.202Z,1.20
2022-09-18T16:46:38.643Z,0.93
2022-09-18T16:49:06.988Z,1.00
2022-09-18T16:51:35.103Z,0.90
2022-09-18T16:54:03.492Z,1.03
2022-09-18T16:56:36.919Z,0.90
2022-09-18T16:59:08.606Z,1.00
2022-09-18T17:01:54.195Z,1.20
2022-09-18T17:04:27.677Z,1.10
2022-09-18T17:06:55.789Z,0.90
2022-09-18T17:09:24.831Z,1.07
2022-09-18T17:11:54.307Z,1.13
2022-09-18T17:14:24.133Z,1.10
2022-09-18T17:16:52.804Z,0.80
2022-09-18T17:19:21.363Z,0.90
2022-09-18T17:21:50.189Z,0.80
2022-09-18T17:24:24.152Z,1.10
2022-09-18T17:26:52.809Z,1.10
2022-09-18T17:29:21.325Z,1.20
2022-09-18T17:31:50.940Z,0.80
2022-09-18T17:34:19.080Z,1.10
2022-09-18T17:36:47.564Z,0.90
2022-09-18T17:39:16.998Z,0.87
2022-09-18T17:41:45.911Z,0.80
2022-09-18T17:44:14.180Z,1.10
2022-09-18T17:46:42.379Z,0.90
2022-09-18T17:49:11.942Z,1.00
2022-09-18T17:51:40.099Z,0.80
2022-09-18T17:54:10.313Z,0.90
2022-09-18T17:56:38.778Z,0.90
2022-09-18T17:59:08.714Z,1.57
2022-09-18T18:01:38.808Z,1.00
2022-09-18T18:04:08.066Z,1.13
2022-09-18T18:06:38.170Z,1.00
2022-09-18T18:09:07.361Z,1.10
2022-09-18T18:11:35.653Z,1.23
2022-09-18T18:14:05.340Z,1.20
2022-09-18T18:16:34.622Z,1.10
2022-09-18T18:19:05.175Z,1.30
2022-09-18T18:21:34.654Z,1.20
2022-09-18T18:24:09.029Z,1.00
2022-09-18T18:26:37.711Z,1.03
2022-09-18T18:29:08.503Z,1.00
2022-09-18T18:31:36.734Z,1.10
2022-09-18T18:34:05.740Z,0.97
2022-09-18T18:36:34.324Z,1.37
2022-09-18T18:39:05.930Z,0.97
2022-09-18T18:41:34.237Z,0.90
2022-09-18T18:44:05.626Z,1.00
2022-09-18T18:46:36.124Z,0.90
2022-09-18T18:49:08.945Z,0.90
2022-09-18T18:51:38.984Z,0.90
2022-09-18T18:54:09.164Z,1.10
2022-09-18T18:56:39.130Z,0.90
2022-09-18T18:59:09.076Z,0.90
2022-09-18T19:01:37.922Z,1.00
2022-09-18T19:04:08.226Z,1.00
2022-09-18T19:06:38.870Z,1.00
2022-09-18T19:09:10.782Z,1.27
2022-09-18T19:11:46.849Z,1.00
2022-09-18T19:14:16.993Z,1.00
2022-09-18T19:16:45.834Z,1.77
2022-09-18T19:19:15.852Z,1.07
2022-09-18T19:21:44.276Z,1.20
2022-09-18T19:24:14.295Z,1.17
2022-09-18T19:26:44.401Z,1.10
2022-09-18T19:29:14.998Z,0.97
2022-09-18T19:31:44.799Z,1.10
2022-09-18T19:34:14.182Z,1.10
2022-09-18T19:36:47.301Z,1.10
2022-09-18T19:39:18.286Z,1.20
2022-09-18T19:41:51.367Z,1.10
2022-09-18T19:44:31.240Z,1.17
2022-09-18T19:47:03.138Z,1.10
2022-09-18T19:49:34.276Z,1.10
2022-09-18T19:52:03.248Z,1.00
2022-09-18T19:54:33.241Z,1.00
2022-09-18T19:57:01.343Z,1.00
2022-09-18T19:59:29.555Z,1.20
2022-09-18T20:01:57.888Z,1.07
2022-09-18T20:04:26.318Z,1.00
2022-09-18T20:06:54.459Z,1.10
2022-09-18T20:09:22.835Z,1.20
2022-09-18T20:11:52.551Z,1.67
2022-09-18T20:14:20.728Z,0.90
2022-09-18T20:16:48.873Z,1.00
2022-09-18T20:19:17.271Z,0.93
2022-09-18T20:21:46.314Z,1.00
2022-09-18T20:24:14.697Z,1.00
2022-09-18T20:26:43.045Z,1.00
2022-09-18T20:29:16.099Z,0.90
2022-09-18T20:31:45.962Z,1.63
2022-09-18T20:34:14.393Z,0.93
2022-09-18T20:36:42.644Z,0.93
2022-09-18T20:39:10.796Z,0.80
2022-09-18T20:41:39.576Z,0.90
2022-09-18T20:44:07.837Z,0.90
2022-09-18T20:46:37.804Z,1.00
2022-09-18T20:49:06.414Z,0.97
2022-09-18T20:51:36.019Z,1.00
2022-09-18T20:54:08.378Z,1.00
2022-09-18T20:56:41.332Z,0.87
2022-09-18T20:59:10.995Z,1.13
2022-09-18T21:01:42.208Z,1.03
2022-09-18T21:04:17.412Z,0.80
2022-09-18T21:06:47.871Z,0.90
2022-09-18T21:09:16.353Z,0.80
2022-09-18T21:11:46.060Z,1.10
2022-09-18T21:14:16.096Z,1.70
2022-09-18T21:16:45.951Z,1.00
2022-09-18T21:19:18.890Z,1.00
2022-09-18T21:21:48.201Z,0.80
2022-09-18T21:24:17.444Z,0.90
2022-09-18T21:26:47.866Z,0.80
2022-09-18T21:29:18.081Z,0.90
2022-09-18T21:31:49.599Z,1.00
2022-09-18T21:34:24.532Z,0.90
2022-09-18T21:36:54.433Z,0.90
2022-09-18T21:39:22.624Z,1.00
2022-09-18T21:41:53.290Z,0.80
2022-09-18T21:44:26.912Z,1.00
2022-09-18T21:46:58.828Z,0.90
2022-09-18T21:49:29.025Z,1.17
2022-09-18T21:51:58.270Z,0.90
2022-09-18T21:54:27.046Z,0.97
2022-09-18T21:56:55.429Z,1.00
2022-09-18T21:59:25.598Z,0.90
2022-09-18T22:01:55.318Z,1.00
2022-09-18T22:04:27.034Z,0.93
2022-09-18T22:06:57.160Z,0.80
2022-09-18T22:09:27.421Z,1.00
2022-09-18T22:11:56.914Z,0.90
2022-09-18T22:14:31.376Z,1.00
2022-09-18T22:17:00.174Z,0.90
2022-09-18T22:19:30.347Z,1.00
2022-09-18T22:21:58.655Z,1.00
2022-09-18T22:24:28.809Z,1.13
2022-09-18T22:26:59.151Z,0.90
2022-09-18T22:29:29.672Z,0.90
2022-09-18T22:31:59.418Z,0.90
2022-09-18T22:34:32.211Z,0.97
2022-09-18T22:37:01.624Z,1.00
2022-09-18T22:39:29.856Z,1.10
2022-09-18T22:41:58.212Z,1.30
2022-09-18T22:44:26.696Z,1.13
2022-09-18T22:46:55.226Z,1.00
2022-09-18T22:49:24.668Z,0.90
2022-09-18T22:51:54.779Z,0.90
2022-09-18T22:54:24.682Z,1.00
2022-09-18T22:56:53.644Z,1.00
2022-09-18T22:59:23.604Z,1.00
2022-09-18T23:01:53.940Z,1.00
2022-09-18T23:04:24.062Z,1.00
2022-09-18T23:06:53.758Z,0.90
2022-09-18T23:09:21.985Z,0.90
2022-09-18T23:11:51.947Z,0.90
2022-09-18T23:14:23.102Z,1.10
2022-09-18T23:16:51.884Z,1.20
2022-09-18T23:19:22.553Z,1.07
2022-09-18T23:21:51.611Z,1.10
2022-09-18T23:24:22.195Z,0.93
2022-09-18T23:26:52.160Z,0.80
2022-09-18T23:29:21.965Z,0.80
2022-09-18T23:31:53.439Z,0.70
2022-09-18T23:34:23.687Z,0.80
2022-09-18T23:36:54.784Z,0.70
2022-09-18T23:39:26.994Z,0.70
2022-09-18T23:41:55.590Z,0.70
2022-09-18T23:44:25.002Z,0.73
2022-09-18T23:46:53.406Z,0.80
2022-09-18T23:49:23.485Z,0.70
2022-09-18T23:51:53.671Z,0.70
2022-09-18T23:54:25.810Z,0.73
2022-09-18T23:56:54.436Z,0.70
2022-09-18T23:59:24.187Z,0.70
